Time;durP1;ratioP1;P1;durP2;ratioP2;P2;SDS_P1;SDS_P2;PMS_P1;PMS_P2;Temp;Humidity;BMP_temperature;BMP_pressure;BME280_temperature;BME280_humidity;BME280_pressure;Samples;Min_cycle;Max_cycle;Signal;HPM_P1;HPM_P2
2022/11/21 00:02:28;;;;;;;9.35;2.95;;;;;;;15.87;64.89;101316.84;1886006;76;21037;-46
2022/11/21 00:08:25;;;;;;;6.80;2.90;;;;;;;15.81;65.17;101314.05;1886156;76;21123;-48
2022/11/21 00:14:23;;;;;;;6.35;3.05;;;;;;;15.71;65.49;101296.34;1877045;76;21631;-43
2022/11/21 00:20:35;;;;;;;8.40;3.10;;;;;;;15.64;65.80;101297.63;1880789;75;21088;-44
2022/11/21 00:26:45;;;;;;;8.60;2.90;;;;;;;15.66;66.06;101296.20;1845328;78;21055;-47
2022/11/21 00:32:54;;;;;;;7.40;3.20;;;;;;;15.65;66.30;101298.00;1845383;78;21055;-44
2022/11/21 00:38:50;;;;;;;6.62;3.77;;;;;;;15.77;66.88;101297.89;1845409;78;21067;-44
2022/11/21 00:45:00;;;;;;;9.28;3.87;;;;;;;15.85;66.90;101298.81;1870090;77;21050;-45
2022/11/21 00:51:10;;;;;;;9.13;3.98;;;;;;;15.71;66.63;101307.45;1876392;76;21027;-44
2022/11/21 00:57:20;;;;;;;12.85;3.55;;;;;;;15.55;67.51;101304.73;1876873;76;21051;-45
2022/11/21 01:03:31;;;;;;;9.55;3.62;;;;;;;15.43;68.13;101291.13;1877109;76;21092;-44
2022/11/21 01:09:29;;;;;;;5.33;2.83;;;;;;;15.38;68.14;101295.83;1884422;76;21461;-45
2022/11/21 01:18:44;;;;;;;4.87;2.92;;;;;;;15.29;68.09;101290.10;1884631;75;21080;-46
2022/11/21 01:24:53;;;;;;;9.13;3.62;;;;;;;15.28;68.23;101291.91;1872572;76;21160;-45
2022/11/21 01:30:38;;;;;;;9.60;3.00;;;;;;;15.38;68.35;101292.30;1870873;76;21038;-48
2022/11/21 01:33:07;;;;;;;8.15;3.22;;;;;;;15.38;68.19;101290.52;1871715;76;21155;-51
2022/11/21 01:35:35;;;;;;;10.58;3.80;;;;;;;15.39;68.16;101288.24;1871919;75;21636;-48
2022/11/21 01:38:04;;;;;;;10.03;3.50;;;;;;;15.39;68.23;101287.39;1871744;76;21154;-48
2022/11/21 01:40:38;;;;;;;7.03;2.87;;;;;;;15.36;68.27;101291.08;1873336;76;21719;-48
2022/11/21 01:43:15;;;;;;;8.18;2.65;;;;;;;15.30;68.25;101284.73;1872055;76;21101;-50
2022/11/21 01:45:50;;;;;;;9.00;2.83;;;;;;;15.22;68.29;101282.94;1872885;76;21039;-50
2022/11/21 01:48:19;;;;;;;8.65;3.10;;;;;;;15.17;68.33;101283.63;1872576;76;21169;-48
2022/11/21 01:50:48;;;;;;;9.60;3.20;;;;;;;15.13;68.33;101279.42;1872299;76;21454;-46
2022/11/21 01:53:18;;;;;;;7.97;4.15;;;;;;;15.08;68.42;101280.95;1873994;75;21211;-47
2022/11/21 01:55:47;;;;;;;9.45;3.22;;;;;;;15.09;68.47;101272.52;1909237;75;21559;-50
2022/11/21 01:58:17;;;;;;;12.68;3.42;;;;;;;15.05;68.48;101260.77;1882495;75;21020;-47
2022/11/21 02:00:47;;;;;;;8.50;3.12;;;;;;;15.03;68.54;101261.31;1876864;76;21035;-47
2022/11/21 02:03:19;;;;;;;7.87;3.17;;;;;;;15.03;68.56;101265.73;1870248;76;21035;-49
2022/11/21 02:05:48;;;;;;;8.00;3.22;;;;;;;15.08;68.90;101259.73;1864453;75;21560;-49
2022/11/21 02:08:19;;;;;;;8.13;2.83;;;;;;;15.27;68.83;101268.98;1864474;77;21050;-47
2022/11/21 02:11:16;;;;;;;7.00;2.70;;;;;;;15.46;68.59;101262.74;1908290;75;21063;-47
2022/11/21 02:13:44;;;;;;;5.65;2.77;;;;;;;15.56;68.25;101257.33;1909154;75;21138;-48
2022/11/21 02:16:13;;;;;;;8.40;3.40;;;;;;;15.69;67.96;101261.54;1909770;75;21114;-52
2022/11/21 02:18:42;;;;;;;7.47;3.10;;;;;;;15.74;67.76;101261.72;1910166;75;21117;-49
2022/11/21 02:21:32;;;;;;;7.83;2.92;;;;;;;15.77;67.63;101268.20;1907449;75;21039;-47
2022/11/21 02:24:16;;;;;;;9.23;3.17;;;;;;;15.77;67.55;101266.88;1899484;75;21529;-50
2022/11/21 02:26:48;;;;;;;8.00;3.50;;;;;;;15.75;67.47;101271.41;1896826;75;21040;-51
2022/11/21 02:29:17;;;;;;;7.67;2.35;;;;;;;15.70;67.42;101264.12;1901297;75;21548;-48
2022/11/21 02:31:46;;;;;;;8.85;2.62;;;;;;;15.59;67.44;101266.48;1871942;75;21541;-48
2022/11/21 02:34:15;;;;;;;6.78;2.85;;;;;;;15.52;67.47;101267.73;1872487;75;21048;-48
2022/11/21 02:36:46;;;;;;;6.42;3.37;;;;;;;15.52;67.57;101260.61;1876064;76;21021;-45
2022/11/21 02:39:17;;;;;;;7.50;3.00;;;;;;;15.58;67.55;101259.44;1889373;75;21214;-46
2022/11/21 02:41:55;;;;;;;7.62;2.92;;;;;;;15.63;67.50;101262.23;1871411;76;21025;-43
2022/11/21 02:44:32;;;;;;;10.08;3.58;;;;;;;15.69;67.41;101262.39;1885411;75;21600;-43
2022/11/21 02:47:01;;;;;;;9.23;2.77;;;;;;;15.70;67.35;101262.80;1872667;75;21003;-44
2022/11/21 02:49:33;;;;;;;7.60;3.10;;;;;;;15.69;67.25;101263.72;1868700;77;21007;-42
2022/11/21 02:52:02;;;;;;;5.00;2.77;;;;;;;15.66;67.28;101265.22;1867870;77;21094;-46
2022/11/21 02:54:30;;;;;;;8.88;3.05;;;;;;;15.64;67.35;101273.73;1868817;77;21458;-44
2022/11/21 02:56:59;;;;;;;11.35;3.12;;;;;;;15.61;67.34;101272.56;1867651;75;21111;-46
2022/11/21 02:59:28;;;;;;;5.80;3.25;;;;;;;15.60;67.37;101281.45;1867951;77;21007;-46
2022/11/21 03:01:58;;;;;;;8.55;3.15;;;;;;;15.60;67.37;101272.16;1868297;77;21031;-46
2022/11/21 03:04:27;;;;;;;5.67;2.65;;;;;;;15.62;67.37;101272.93;1868013;77;21047;-45
2022/11/21 03:06:56;;;;;;;6.25;2.90;;;;;;;15.67;67.31;101274.89;1868780;76;21027;-44
2022/11/21 03:09:25;;;;;;;7.17;3.17;;;;;;;15.75;67.19;101270.09;1868802;77;21030;-44
2022/11/21 03:11:53;;;;;;;8.18;3.33;;;;;;;15.87;66.91;101270.38;1868892;77;21133;-47
2022/11/21 03:14:22;;;;;;;6.37;3.02;;;;;;;15.93;66.71;101270.04;1867440;77;21023;-49
2022/11/21 03:16:51;;;;;;;7.05;2.75;;;;;;;15.95;66.60;101273.02;1887401;75;21052;-45
2022/11/21 03:19:20;;;;;;;6.65;3.62;;;;;;;15.93;66.58;101272.70;1898752;75;21031;-50
2022/11/21 03:21:49;;;;;;;7.85;3.47;;;;;;;15.93;66.55;101272.70;1883852;76;21012;-48
2022/11/21 03:24:17;;;;;;;10.18;3.10;;;;;;;15.89;66.56;101281.30;1883201;75;21116;-50
2022/11/21 03:26:46;;;;;;;6.30;3.12;;;;;;;15.84;66.63;101282.00;1880829;75;21043;-49
2022/11/21 03:29:15;;;;;;;11.20;3.60;;;;;;;15.80;66.76;101288.41;1876890;76;21118;-48
2022/11/21 03:31:44;;;;;;;10.95;3.70;;;;;;;15.79;66.88;101289.38;1876970;76;21098;-44
2022/11/21 03:34:13;;;;;;;4.75;2.77;;;;;;;15.83;66.91;101283.80;1876916;76;21047;-47
2022/11/21 03:36:42;;;;;;;6.90;3.20;;;;;;;15.90;66.93;101286.12;1882795;76;21121;-48
2022/11/21 03:39:10;;;;;;;6.33;2.62;;;;;;;15.94;66.92;101283.72;1883702;76;21023;-51
2022/11/21 03:41:39;;;;;;;10.48;3.45;;;;;;;15.96;66.88;101280.52;1883664;76;21122;-47
2022/11/21 03:44:10;;;;;;;7.83;3.35;;;;;;;15.94;66.92;101275.27;1883709;76;21158;-47
2022/11/21 03:46:41;;;;;;;9.05;3.25;;;;;;;15.91;66.96;101279.89;1878749;76;21043;-49
2022/11/21 03:49:10;;;;;;;8.75;2.95;;;;;;;15.88;67.06;101274.28;1876909;76;21136;-48
2022/11/21 03:51:39;;;;;;;6.53;2.95;;;;;;;15.91;67.14;101270.59;1876954;76;21587;-47
2022/11/21 03:54:08;;;;;;;7.75;3.42;;;;;;;16.03;66.87;101260.66;1876824;76;21482;-46
2022/11/21 03:56:41;;;;;;;7.45;3.50;;;;;;;16.14;66.71;101257.42;1877378;76;21160;-49
2022/11/21 03:59:10;;;;;;;6.33;3.22;;;;;;;16.23;66.38;101256.05;1877173;76;21079;-46
2022/11/21 04:01:38;;;;;;;5.15;3.00;;;;;;;16.27;66.32;101255.81;1876965;76;21108;-47
2022/11/21 04:04:07;;;;;;;5.95;3.45;;;;;;;16.30;66.23;101255.62;1876941;76;21063;-50
2022/11/21 04:06:36;;;;;;;7.83;3.22;;;;;;;16.30;66.18;101252.11;1877330;76;21058;-50
2022/11/21 04:09:05;;;;;;;6.40;2.87;;;;;;;16.28;66.16;101250.02;1876938;76;21149;-50
2022/11/21 04:11:34;;;;;;;8.40;3.42;;;;;;;16.28;66.11;101250.02;1877033;76;21090;-48
2022/11/21 04:14:03;;;;;;;7.08;3.22;;;;;;;16.28;66.11;101247.36;1877031;76;21042;-46
2022/11/21 04:16:31;;;;;;;12.88;3.67;;;;;;;16.26;66.11;101243.45;1879819;76;21211;-47
2022/11/21 04:19:00;;;;;;;11.83;3.83;;;;;;;16.25;66.15;101243.53;1869214;76;21117;-49
2022/11/21 04:21:29;;;;;;;6.85;3.15;;;;;;;16.25;66.11;101236.89;1867739;76;21121;-45
2022/11/21 04:23:57;;;;;;;6.70;3.15;;;;;;;16.29;66.00;101230.48;1883038;76;21096;-47
2022/11/21 04:26:26;;;;;;;7.70;2.98;;;;;;;16.32;65.94;101235.61;1885220;76;21038;-45
2022/11/21 04:28:55;;;;;;;8.18;4.25;;;;;;;16.32;65.94;101232.95;1883532;76;21116;-46
2022/11/21 04:31:24;;;;;;;9.03;4.58;;;;;;;16.30;65.95;101232.19;1884212;76;21099;-49
2022/11/21 04:33:53;;;;;;;4.67;3.00;;;;;;;16.26;66.04;101229.32;1883888;76;21105;-47
2022/11/21 04:36:21;;;;;;;5.95;2.75;;;;;;;16.27;66.08;101225.70;1883478;76;21179;-50
2022/11/21 04:38:50;;;;;;;7.20;3.33;;;;;;;16.29;66.04;101223.84;1882128;76;21129;-44
2022/11/21 04:41:19;;;;;;;10.25;3.72;;;;;;;16.34;65.94;101222.64;1882590;76;21105;-46
2022/11/21 04:43:48;;;;;;;12.18;3.77;;;;;;;16.38;65.79;101228.65;1882257;76;21047;-50
2022/11/21 04:46:18;;;;;;;10.20;3.42;;;;;;;16.38;65.74;101224.19;1885747;76;21113;-47
2022/11/21 04:48:46;;;;;;;9.75;3.50;;;;;;;16.38;65.65;101228.17;1883600;75;21474;-47
2022/11/21 04:51:16;;;;;;;11.53;3.40;;;;;;;16.39;65.64;101232.52;1884633;76;21058;-46
2022/11/21 04:53:45;;;;;;;6.75;3.50;;;;;;;16.37;65.62;101229.58;1883454;76;21180;-49
2022/11/21 04:56:15;;;;;;;9.78;3.58;;;;;;;16.35;65.62;101223.49;1883158;76;21031;-47
2022/11/21 04:58:44;;;;;;;6.70;3.52;;;;;;;16.33;65.54;101223.58;1882209;75;21113;-45
2022/11/21 05:01:13;;;;;;;18.05;4.17;;;;;;;16.35;65.52;101225.67;1884140;76;21435;-48
2022/11/21 05:03:42;;;;;;;8.25;3.37;;;;;;;16.38;65.46;101220.67;1883604;76;21031;-48
2022/11/21 05:06:11;;;;;;;8.65;3.87;;;;;;;16.38;65.46;101225.52;1873791;76;21133;-46
2022/11/21 05:08:39;;;;;;;9.15;3.72;;;;;;;16.40;65.46;101221.45;1867515;77;21016;-49
2022/11/21 05:13:55;;;;;;;16.55;4.80;;;;;;;16.38;65.40;101224.19;1867465;77;21087;-46
2022/11/21 05:16:23;;;;;;;29.92;8.15;;;;;;;16.36;65.44;101227.40;1867938;76;21008;-46
2022/11/21 05:18:52;;;;;;;16.87;6.65;;;;;;;16.32;65.54;101216.56;1886399;75;21098;-47
2022/11/21 05:21:21;;;;;;;12.47;4.80;;;;;;;16.32;65.58;101219.67;1883683;76;21124;-46
2022/11/21 05:23:49;;;;;;;10.95;4.20;;;;;;;16.34;65.57;101223.09;1883286;76;21474;-47
2022/11/21 05:26:18;;;;;;;12.78;4.20;;;;;;;16.40;65.42;101225.44;1883655;76;21051;-43
2022/11/21 05:28:47;;;;;;;14.47;4.62;;;;;;;16.45;65.31;101218.52;1883676;76;21033;-43
2022/11/21 05:31:16;;;;;;;8.08;3.77;;;;;;;16.49;65.24;101227.58;1883796;76;21031;-45
2022/11/21 05:33:45;;;;;;;5.55;2.92;;;;;;;16.51;65.25;101223.50;1883078;76;21078;-44
2022/11/21 05:36:14;;;;;;;14.68;4.10;;;;;;;16.53;65.17;101230.44;1883528;76;21059;-45
2022/11/21 05:38:43;;;;;;;12.53;4.05;;;;;;;16.54;65.11;101231.28;1883688;76;21058;-45
2022/11/21 05:41:12;;;;;;;14.33;4.33;;;;;;;16.54;65.14;101229.51;1883635;76;21477;-47
2022/11/21 05:43:47;;;;;;;11.57;4.58;;;;;;;16.55;65.17;101233.02;1883696;76;21039;-47
2022/11/21 05:46:19;;;;;;;13.28;4.17;;;;;;;16.56;65.18;101232.94;1883113;75;21023;-44
2022/11/21 05:48:48;;;;;;;9.75;4.17;;;;;;;16.57;65.21;101230.64;1883573;76;21117;-45
2022/11/21 05:51:18;;;;;;;12.75;4.20;;;;;;;16.57;65.21;101225.81;1883704;75;21446;-45
2022/11/21 05:53:48;;;;;;;24.37;6.37;;;;;;;16.58;65.26;101225.73;1883674;76;21035;-45
2022/11/21 05:56:19;;;;;;;24.07;5.80;;;;;;;16.59;65.32;101226.58;1883826;75;21118;-43
2022/11/21 05:58:47;;;;;;;12.60;4.83;;;;;;;16.59;65.37;101226.09;1883653;76;21059;-44
2022/11/21 06:03:25;;;;;;;19.98;5.70;;;;;;;16.59;65.35;101227.42;1883542;76;21117;-45
2022/11/21 06:03:47;;;;;;;33.73;7.55;;;;;;;16.62;65.39;101226.41;1881827;76;21055;-45
2022/11/21 06:06:16;;;;;;;30.40;6.67;;;;;;;16.62;65.47;101219.77;1883113;76;21110;-44
2022/11/21 06:08:46;;;;;;;21.93;5.92;;;;;;;16.65;65.50;101220.05;1883647;76;21590;-43
2022/11/21 06:11:16;;;;;;;15.95;4.62;;;;;;;16.69;65.46;101215.81;1883635;76;21627;-46
2022/11/21 06:13:45;;;;;;;8.40;4.42;;;;;;;16.77;65.27;101213.56;1883569;76;21610;-45
2022/11/21 06:16:17;;;;;;;15.28;3.92;;;;;;;16.87;65.00;101220.56;1883095;76;21059;-46
2022/11/21 06:18:48;;;;;;;17.15;4.45;;;;;;;16.94;64.88;101218.41;1878646;75;21095;-46
2022/11/21 06:21:19;;;;;;;11.03;3.72;;;;;;;17.00;64.86;101215.87;1884963;75;21137;-47
2022/11/21 06:23:53;;;;;;;28.45;6.75;;;;;;;17.05;64.86;101220.45;1883069;76;21039;-42
2022/11/21 06:26:25;;;;;;;17.25;4.67;;;;;;;17.10;64.77;101216.57;1883712;76;21164;-42
2022/11/21 06:28:55;;;;;;;9.45;4.33;;;;;;;17.16;64.68;101216.68;1877533;75;21120;-44
2022/11/21 06:31:26;;;;;;;11.70;4.35;;;;;;;17.21;64.57;101213.73;1876886;76;21059;-45
2022/11/21 06:33:56;;;;;;;15.20;4.53;;;;;;;17.24;64.45;101218.40;1876961;75;21042;-45
2022/11/21 06:36:26;;;;;;;10.25;3.75;;;;;;;17.28;64.26;101211.09;1876841;76;21085;-44
2022/11/21 06:38:56;;;;;;;10.32;4.30;;;;;;;17.32;64.11;101216.64;1877478;76;21043;-45
2022/11/21 06:41:29;;;;;;;11.88;3.50;;;;;;;17.36;64.15;101223.00;1883338;76;21049;-50
2022/11/21 06:43:59;;;;;;;11.53;3.83;;;;;;;17.38;64.17;101221.58;1883601;75;21035;-46
2022/11/21 06:46:28;;;;;;;9.93;4.45;;;;;;;17.40;64.17;101216.17;1883597;76;21047;-46
2022/11/21 06:48:57;;;;;;;9.05;3.70;;;;;;;17.41;64.21;101212.55;1881533;76;21165;-48
2022/11/21 06:51:26;;;;;;;9.98;3.58;;;;;;;17.42;64.18;101214.27;1887773;75;21038;-47
2022/11/21 06:53:57;;;;;;;8.43;4.30;;;;;;;17.43;64.17;101214.64;1889164;76;21038;-50
2022/11/21 06:56:30;;;;;;;9.65;4.15;;;;;;;17.44;64.12;101213.70;1889234;76;21078;-50
2022/11/21 06:58:59;;;;;;;9.08;3.85;;;;;;;17.46;64.10;101219.78;1885771;76;21042;-51
2022/11/21 07:01:28;;;;;;;11.25;4.03;;;;;;;17.48;64.14;101221.39;1876820;76;21031;-46
2022/11/21 07:03:57;;;;;;;9.58;3.72;;;;;;;17.51;64.13;101223.03;1876917;76;21035;-45
2022/11/21 07:06:26;;;;;;;11.20;3.80;;;;;;;17.56;64.14;101223.62;1876851;76;21062;-47
2022/11/21 07:08:55;;;;;;;13.83;3.75;;;;;;;17.61;63.98;101224.17;1877161;76;21469;-51
2022/11/21 07:11:23;;;;;;;11.30;3.98;;;;;;;17.68;63.70;101224.66;1882369;75;21110;-45
2022/11/21 07:13:53;;;;;;;10.58;4.30;;;;;;;17.74;63.63;101224.27;1883299;76;21031;-45
2022/11/21 07:16:24;;;;;;;12.10;4.72;;;;;;;17.81;63.61;101230.09;1883201;75;21031;-48
2022/11/21 07:18:52;;;;;;;10.15;4.17;;;;;;;17.89;63.53;101224.72;1883527;76;21022;-46
2022/11/21 07:21:21;;;;;;;11.65;4.03;;;;;;;17.99;63.33;101228.14;1875330;75;21070;-46
2022/11/21 07:23:49;;;;;;;10.70;3.80;;;;;;;18.11;62.92;101228.23;1871593;76;21500;-44
2022/11/21 07:26:18;;;;;;;12.07;4.03;;;;;;;18.24;62.54;101225.64;1874756;76;21054;-44
2022/11/21 07:28:47;;;;;;;10.90;3.75;;;;;;;18.39;62.30;101221.59;1874129;76;21062;-45
2022/11/21 07:31:16;;;;;;;10.15;4.30;;;;;;;18.54;61.70;101219.29;1873978;76;21066;-45
2022/11/21 07:33:46;;;;;;;7.00;3.77;;;;;;;18.74;61.03;101215.32;1874289;76;21030;-46
2022/11/21 07:36:15;;;;;;;8.13;3.92;;;;;;;19.07;60.54;101211.38;1874407;76;21124;-46
2022/11/21 07:38:46;;;;;;;11.10;3.98;;;;;;;19.32;59.63;101197.22;1874432;76;20992;-45
2022/11/21 07:41:15;;;;;;;8.08;3.50;;;;;;;19.47;58.85;101200.16;1873854;76;21083;-45
2022/11/21 07:43:44;;;;;;;8.73;4.20;;;;;;;19.77;58.26;101202.17;1874357;76;21469;-45
2022/11/21 07:46:12;;;;;;;14.73;6.33;;;;;;;20.21;57.12;101206.16;1874814;76;21107;-45
2022/11/21 07:48:41;;;;;;;11.12;5.60;;;;;;;20.50;55.54;101204.53;1874538;76;21018;-45
2022/11/21 07:51:10;;;;;;;15.00;6.70;;;;;;;20.73;55.29;101196.15;1871245;76;21063;-44
2022/11/21 07:53:39;;;;;;;11.43;4.50;;;;;;;20.98;54.98;101196.51;1873710;75;21058;-44
2022/11/21 07:56:13;;;;;;;8.38;4.03;;;;;;;20.86;53.96;101197.42;1874502;76;21034;-48
2022/11/21 07:58:39;;;;;;;7.60;4.30;;;;;;;20.66;54.83;101192.22;1873465;76;21042;-47
2022/11/21 08:01:08;;;;;;;12.93;6.70;;;;;;;20.56;54.51;101189.35;1871190;76;21414;-43
2022/11/21 08:03:37;;;;;;;13.58;5.33;;;;;;;20.53;54.54;101185.09;1875176;75;21191;-45
2022/11/21 08:06:05;;;;;;;13.35;4.92;;;;;;;20.60;53.80;101177.02;1847332;76;21161;-45
2022/11/21 08:08:34;;;;;;;9.95;4.30;;;;;;;20.74;53.71;101176.47;1870118;76;21572;-46
2022/11/21 08:11:05;;;;;;;9.23;4.25;;;;;;;20.90;53.35;101172.16;1874584;76;21130;-46
2022/11/21 08:13:35;;;;;;;12.18;4.78;;;;;;;21.08;52.80;101157.37;1870197;76;21109;-47
2022/11/21 08:16:05;;;;;;;9.25;4.25;;;;;;;21.40;52.62;101158.03;1874190;76;21518;-49
2022/11/21 08:18:33;;;;;;;10.03;3.87;;;;;;;21.75;51.84;101151.74;1874315;76;21168;-46
2022/11/21 08:21:03;;;;;;;13.13;4.00;;;;;;;22.05;51.30;101154.27;1870204;75;21132;-48
2022/11/21 08:23:32;;;;;;;7.00;4.42;;;;;;;22.39;50.21;101155.55;1867511;76;21130;-48
2022/11/21 08:26:01;;;;;;;10.55;4.30;;;;;;;22.59;49.26;101142.67;1868584;76;21034;-45
2022/11/21 08:28:30;;;;;;;12.90;6.20;;;;;;;22.63;48.63;101141.47;1874222;76;21010;-48
2022/11/21 08:30:59;;;;;;;6.55;3.25;;;;;;;22.51;48.06;101135.77;1870849;76;21088;-46
2022/11/21 08:33:27;;;;;;;7.10;3.83;;;;;;;22.51;48.28;101129.91;1869920;76;21228;-47
2022/11/21 08:35:56;;;;;;;8.98;3.90;;;;;;;22.35;47.59;101130.34;1869882;77;21094;-47
2022/11/21 08:38:24;;;;;;;10.38;3.50;;;;;;;22.36;48.17;101122.64;1870002;76;21047;-46
2022/11/21 08:42:01;;;;;;;9.33;4.35;;;;;;;22.52;47.81;101121.36;1867630;76;21067;-48
2022/11/21 08:43:24;;;;;;;7.03;3.87;;;;;;;22.59;47.61;101114.99;1863376;77;21105;-47
2022/11/21 08:45:52;;;;;;;9.23;3.45;;;;;;;22.58;47.64;101109.28;1865998;76;21486;-46
2022/11/21 08:48:21;;;;;;;7.70;3.37;;;;;;;22.38;48.32;101108.27;1867855;75;21057;-44
2022/11/21 08:50:50;;;;;;;6.92;3.80;;;;;;;22.13;48.71;101111.58;1888663;76;21031;-47
2022/11/21 08:53:19;;;;;;;7.47;3.30;;;;;;;21.85;49.16;101101.77;1889907;76;21046;-49
2022/11/21 08:55:47;;;;;;;7.78;3.42;;;;;;;21.53;49.21;101086.45;1889929;76;21042;-48
2022/11/21 08:58:16;;;;;;;7.08;3.58;;;;;;;21.32;49.61;101084.10;1880326;75;21035;-46
2022/11/21 09:00:44;;;;;;;8.55;3.50;;;;;;;21.17;49.66;101080.34;1869517;76;21026;-45
2022/11/21 09:03:13;;;;;;;7.10;3.35;;;;;;;21.07;49.55;101080.69;1871533;76;21137;-43
2022/11/21 09:05:42;;;;;;;8.43;3.30;;;;;;;20.99;49.48;101072.41;1882189;76;21104;-42
2022/11/21 09:08:11;;;;;;;12.25;4.05;;;;;;;20.92;49.61;101070.69;1878902;75;21023;-44
2022/11/21 09:10:39;;;;;;;6.47;3.20;;;;;;;20.83;49.54;101072.73;1865447;76;21438;-44
2022/11/21 09:13:08;;;;;;;6.28;2.62;;;;;;;20.73;48.95;101068.59;1869719;76;21599;-43
2022/11/21 09:18:23;;;;;;;7.30;3.33;;;;;;;20.64;48.43;101062.60;1869828;76;21039;-43
2022/11/21 09:20:52;;;;;;;5.75;2.83;;;;;;;20.64;48.67;101066.61;1869738;76;21034;-44
2022/11/21 09:23:21;;;;;;;5.92;2.92;;;;;;;20.62;48.02;101059.20;1867064;76;21062;-43
2022/11/21 09:25:49;;;;;;;8.15;3.33;;;;;;;20.63;48.35;101063.56;1873250;76;21062;-42
2022/11/21 09:28:18;;;;;;;4.62;2.67;;;;;;;20.66;48.29;101056.64;1889732;75;21058;-40
2022/11/21 09:30:47;;;;;;;7.17;2.55;;;;;;;20.70;48.06;101058.60;1900437;74;21079;-43
2022/11/21 09:33:16;;;;;;;8.85;3.67;;;;;;;20.71;48.03;101050.47;1899104;75;21062;-41
2022/11/21 09:35:45;;;;;;;8.55;1.92;;;;;;;20.73;48.32;101040.95;1890784;74;21569;-43
2022/11/21 09:38:14;;;;;;;5.60;2.80;;;;;;;20.72;48.18;101050.81;1901294;75;21112;-43
2022/11/21 09:40:45;;;;;;;9.48;3.92;;;;;;;20.70;48.30;101046.06;1898587;75;21031;-43
2022/11/21 09:43:46;;;;;;;5.42;3.02;;;;;;;20.67;48.33;101046.30;1903449;75;21035;-42
2022/11/21 09:46:22;;;;;;;8.78;3.15;;;;;;;20.63;48.12;101038.14;1898353;74;21069;-45
2022/11/21 09:48:54;;;;;;;5.83;3.42;;;;;;;20.61;48.55;101036.07;1886364;74;21034;-43
2022/11/21 09:51:25;;;;;;;7.42;3.12;;;;;;;20.58;48.61;101032.25;1883903;76;21108;-43
2022/11/21 09:54:06;;;;;;;6.35;2.98;;;;;;;20.56;48.83;101039.55;1883657;76;21461;-44
2022/11/21 09:56:37;;;;;;;11.10;3.10;;;;;;;20.54;48.63;101036.98;1881165;76;21500;-44
2022/11/21 09:59:14;;;;;;;6.90;2.62;;;;;;;20.54;48.59;101030.79;1883679;76;21465;-43
2022/11/21 10:01:43;;;;;;;5.95;2.90;;;;;;;20.52;48.51;101028.72;1883707;76;21591;-44
2022/11/21 10:04:12;;;;;;;6.60;2.95;;;;;;;20.49;48.31;101026.27;1883669;76;21121;-44
2022/11/21 10:06:53;;;;;;;5.35;2.65;;;;;;;20.49;48.38;101022.25;1883629;76;21063;-44
2022/11/21 10:09:30;;;;;;;6.22;2.83;;;;;;;20.49;48.50;101024.94;1887217;75;21089;-44
2022/11/21 10:15:26;;;;;;;9.30;3.25;;;;;;;20.48;48.64;101031.27;1889131;76;21023;-44
2022/11/21 10:18:10;;;;;;;6.50;2.95;;;;;;;20.48;48.66;101024.09;1889206;76;21532;-44
2022/11/21 10:21:01;;;;;;;5.40;2.62;;;;;;;20.51;48.58;101020.31;1885644;76;21102;-45
2022/11/21 10:23:35;;;;;;;11.40;3.33;;;;;;;20.54;48.60;101014.74;1887882;74;21671;-54
2022/11/21 10:26:09;;;;;;;7.95;3.40;;;;;;;20.56;48.73;101018.98;1875589;74;21565;-47
2022/11/21 10:28:47;;;;;;;16.32;4.40;;;;;;;20.60;48.79;101013.83;1905234;74;21018;-48
2022/11/21 10:31:17;;;;;;;7.60;3.33;;;;;;;20.65;48.83;101009.94;1905298;74;21135;-48
2022/11/21 10:33:46;;;;;;;5.35;3.15;;;;;;;20.71;48.94;100995.61;1897856;74;21098;-52
2022/11/21 10:36:36;;;;;;;8.50;3.15;;;;;;;20.76;48.85;101003.27;1908560;74;21115;-48
2022/11/21 10:39:17;;;;;;;8.75;2.90;;;;;;;20.78;48.90;100998.15;1910778;74;21067;-48
2022/11/21 10:41:51;;;;;;;8.08;2.98;;;;;;;20.78;49.00;100995.97;1890871;74;21113;-47
2022/11/21 10:47:15;;;;;;;9.95;2.92;;;;;;;20.77;48.99;100988.43;1907285;74;20982;-47
2022/11/21 10:49:45;;;;;;;8.65;2.83;;;;;;;20.77;48.95;100983.58;1894101;74;21153;-47
2022/11/21 10:52:19;;;;;;;8.68;6.12;;;;;;;20.77;49.04;100983.58;1891024;74;21169;-50
2022/11/21 10:55:06;;;;;;;5.83;3.37;;;;;;;20.75;49.15;100970.31;1899903;74;21126;-44
2022/11/21 10:57:40;;;;;;;15.93;3.47;;;;;;;20.75;49.25;100969.44;1897178;74;21145;-46
2022/11/21 11:00:15;;;;;;;6.95;2.72;;;;;;;20.70;49.22;100972.48;1895091;74;21125;-45
2022/11/21 11:03:06;;;;;;;9.13;3.12;;;;;;;20.67;49.26;100966.03;1903082;74;21176;-45
2022/11/21 11:05:35;;;;;;;6.87;3.00;;;;;;;20.65;49.30;100962.63;1906392;74;20984;-45
2022/11/21 11:08:06;;;;;;;7.72;2.70;;;;;;;20.63;49.39;100958.73;1913189;73;21040;-45
2022/11/21 11:10:41;;;;;;;6.62;3.05;;;;;;;20.63;49.34;100954.71;1895789;74;21085;-53
2022/11/21 11:13:33;;;;;;;11.80;2.72;;;;;;;20.63;49.45;100956.55;1892614;74;21113;-51
2022/11/21 11:16:05;;;;;;;6.58;2.87;;;;;;;20.62;49.45;100951.69;1901335;74;21107;-52
2022/11/21 11:18:35;;;;;;;7.47;2.98;;;;;;;20.62;49.63;100950.84;1892545;73;21145;-47
2022/11/21 11:21:13;;;;;;;7.17;3.25;;;;;;;20.60;49.73;100948.28;1870913;74;21164;-47
2022/11/21 11:23:42;;;;;;;8.93;2.75;;;;;;;20.60;49.92;100948.72;1858931;74;21137;-51
2022/11/21 11:26:28;;;;;;;11.22;3.17;;;;;;;20.57;50.08;100943.62;1877748;75;21552;-54
2022/11/21 11:29:17;;;;;;;16.30;3.72;;;;;;;20.54;50.22;100943.36;1879190;75;21110;-48
2022/11/21 11:32:00;;;;;;;15.53;4.15;;;;;;;20.55;50.35;100937.55;1883152;75;21552;-45
2022/11/21 11:34:41;;;;;;;11.25;3.70;;;;;;;20.54;50.43;100934.49;1886677;75;21109;-47
2022/11/21 11:37:18;;;;;;;14.55;4.40;;;;;;;20.54;50.52;100937.17;1888842;75;21093;-48
2022/11/21 11:40:08;;;;;;;12.53;3.77;;;;;;;20.54;50.57;100935.83;1888304;75;21133;-51
2022/11/21 11:48:40;;;;;;;6.20;3.25;;;;;;;20.52;50.77;100939.11;1881347;75;21112;-51
2022/11/21 11:51:24;;;;;;;8.75;3.22;;;;;;;20.46;50.50;100937.77;1882332;75;21145;-47
2022/11/21 11:53:56;;;;;;;12.75;3.35;;;;;;;20.42;50.43;100947.85;1865593;75;22222;-47
2022/11/21 11:56:31;;;;;;;4.67;2.58;;;;;;;20.40;50.15;100949.80;1878008;75;21130;-48
2022/11/21 11:59:18;;;;;;;7.85;2.98;;;;;;;20.38;49.63;100935.70;1887152;75;21011;-48
2022/11/21 12:02:08;;;;;;;8.90;2.72;;;;;;;20.37;49.74;100936.66;1881270;74;21113;-52
2022/11/21 12:04:42;;;;;;;6.12;2.17;;;;;;;20.34;49.24;100937.38;1879540;75;21148;-48
2022/11/21 12:07:32;;;;;;;21.30;3.00;;;;;;;20.32;49.23;100932.14;1874014;75;21029;-45
2022/11/21 12:10:28;;;;;;;7.40;2.35;;;;;;;20.32;48.77;100932.63;1868372;76;21015;-47
2022/11/21 12:12:59;;;;;;;6.17;2.70;;;;;;;20.32;48.99;100921.44;1869811;77;21458;-44
2022/11/21 12:15:49;;;;;;;9.95;2.58;;;;;;;20.30;49.16;100915.36;1872285;76;21030;-45
2022/11/21 12:18:23;;;;;;;11.60;2.90;;;;;;;20.27;49.29;100906.27;1874143;76;21031;-46
2022/11/21 12:21:10;;;;;;;6.05;2.47;;;;;;;20.22;49.48;100905.77;1874174;76;21058;-45
2022/11/21 12:23:44;;;;;;;8.15;3.45;;;;;;;20.19;49.63;100909.50;1874367;76;21549;-45
2022/11/21 12:26:31;;;;;;;7.42;2.95;;;;;;;20.13;49.82;100909.14;1876613;76;21168;-45
2022/11/21 12:29:11;;;;;;;7.62;2.20;;;;;;;20.08;49.95;100913.48;1867355;77;21086;-45
2022/11/21 12:32:06;;;;;;;10.50;3.12;;;;;;;20.03;49.95;100917.02;1868869;76;21561;-49
2022/11/21 12:35:00;;;;;;;7.00;2.17;;;;;;;19.95;49.90;100918.07;1868758;77;21567;-48
2022/11/21 12:38:07;;;;;;;2.98;2.08;;;;;;;19.87;49.90;100919.98;1869255;77;21619;-47
2022/11/21 12:40:53;;;;;;;10.20;2.80;;;;;;;19.80;49.75;100920.92;1868633;77;21502;-48
2022/11/21 12:43:46;;;;;;;7.50;2.83;;;;;;;19.77;49.84;100913.62;1873837;76;21133;-47
2022/11/21 12:46:30;;;;;;;8.93;2.35;;;;;;;19.73;49.87;100910.81;1874507;76;21125;-45
2022/11/21 12:54:44;;;;;;;8.33;2.77;;;;;;;19.62;50.10;100900.89;1883801;76;21038;-47
2022/11/21 12:57:16;;;;;;;6.25;2.37;;;;;;;19.59;50.19;100896.64;1883270;76;21078;-47
2022/11/21 13:00:08;;;;;;;7.78;2.47;;;;;;;19.56;50.17;100900.88;1879669;76;21054;-46
2022/11/21 13:02:59;;;;;;;7.35;2.60;;;;;;;19.54;50.19;100908.64;1872161;76;21552;-47